Terminal Aerodrome Forecast
Issued by NWS

Home | Current Version | Previous Version | Text Only | Print | Product List | Glossary On
Versions: 1 2 3 4 5 6 7 8 9 10 11 12 13 14 15 16 17
000
FTUS43 KILX 222200 AAA
TAFDEC
TAF AMD
KDEC 222207Z 2222/2318 15012KT 3SM -RA BR OVC006
     FM230900 20012KT 4SM BR BKN015
     FM231400 22014KT P6SM BKN025=

USA.gov is the U.S. government's official web portal to all federal, state and local government web resources and services.